createdAt,value
2023-01-06T00:01:02.107Z,3.09
2023-01-06T00:06:08.011Z,3.10
2023-01-06T00:11:12.112Z,3.13
2023-01-06T00:16:16.595Z,3.22
2023-01-06T00:21:20.164Z,3.10
2023-01-06T00:26:24.691Z,3.00
2023-01-06T00:31:27.300Z,2.97
2023-01-06T00:36:30.697Z,2.97
2023-01-06T00:41:51.558Z,3.07
2023-01-06T00:46:53.926Z,3.14
2023-01-06T00:51:57.386Z,3.08
2023-01-06T00:57:00.671Z,3.02
2023-01-06T01:02:03.012Z,3.03
2023-01-06T01:07:06.654Z,3.03
2023-01-06T01:12:10.356Z,3.09
2023-01-06T01:17:13.840Z,2.91
2023-01-06T01:22:17.619Z,2.88
2023-01-06T01:27:19.934Z,2.78
2023-01-06T01:32:21.868Z,2.76
2023-01-06T01:37:25.316Z,2.65
2023-01-06T01:42:27.337Z,2.67
2023-01-06T01:47:43.633Z,2.74
2023-01-06T01:52:49.903Z,2.68
2023-01-06T01:57:58.451Z,2.76
2023-01-06T02:03:00.936Z,2.61
2023-01-06T02:08:14.242Z,2.63
2023-01-06T02:13:16.283Z,2.57
2023-01-06T02:18:34.660Z,2.58
2023-01-06T02:23:56.572Z,2.49
2023-01-06T02:29:18.990Z,2.38
2023-01-06T02:34:33.589Z,2.38
2023-01-06T02:39:46.323Z,2.38
2023-01-06T02:45:00.088Z,2.25
2023-01-06T02:50:15.763Z,2.18
2023-01-06T02:55:24.754Z,2.15
2023-01-06T03:00:33.599Z,2.15
2023-01-06T03:05:38.360Z,2.06
2023-01-06T03:10:43.599Z,2.02
2023-01-06T03:15:45.601Z,2.05
2023-01-06T03:20:53.150Z,2.02
2023-01-06T03:25:55.305Z,2.00
2023-01-06T03:31:06.139Z,2.06
2023-01-06T03:36:19.362Z,1.97
2023-01-06T03:41:49.959Z,2.00
2023-01-06T03:47:00.010Z,2.04
2023-01-06T03:52:10.391Z,2.02
2023-01-06T03:57:16.911Z,2.04
2023-01-06T04:02:20.271Z,2.01
2023-01-06T04:07:23.616Z,1.99
2023-01-06T04:12:41.095Z,2.05
2023-01-06T04:17:44.192Z,2.02
2023-01-06T04:22:47.491Z,2.18
2023-01-06T04:27:50.593Z,2.12
2023-01-06T04:32:52.695Z,2.05
2023-01-06T04:37:55.986Z,1.97
2023-01-06T04:43:04.087Z,2.04
2023-01-06T04:48:06.324Z,2.02
2023-01-06T04:53:10.978Z,1.98
2023-01-06T04:58:13.181Z,2.02
2023-01-06T05:03:15.111Z,2.06
2023-01-06T05:08:18.443Z,2.02
2023-01-06T05:13:20.386Z,1.98
2023-01-06T05:18:22.560Z,1.90
2023-01-06T05:23:25.940Z,2.00
2023-01-06T05:28:28.409Z,1.88
2023-01-06T05:33:31.905Z,1.84
2023-01-06T05:38:35.228Z,1.76
2023-01-06T05:43:37.750Z,1.81
2023-01-06T05:48:40.259Z,1.84
2023-01-06T05:53:45.947Z,1.76
2023-01-06T05:58:49.652Z,2.00
2023-01-06T06:03:52.819Z,1.79
2023-01-06T06:08:56.544Z,1.83
2023-01-06T06:13:58.757Z,1.87
2023-01-06T06:19:01.003Z,1.84
2023-01-06T06:24:05.001Z,1.80
2023-01-06T06:29:07.658Z,1.84
2023-01-06T06:34:12.588Z,1.73
2023-01-06T06:39:15.886Z,1.82
2023-01-06T06:44:17.851Z,1.72
2023-01-06T06:49:19.814Z,1.87
2023-01-06T06:54:23.127Z,2.00
2023-01-06T06:59:25.111Z,2.11
2023-01-06T07:04:27.140Z,2.13
2023-01-06T07:09:30.525Z,2.19
2023-01-06T07:14:32.507Z,2.18
2023-01-06T07:19:35.161Z,2.19
2023-01-06T07:24:38.466Z,2.30
2023-01-06T07:29:40.502Z,2.45
2023-01-06T07:34:42.503Z,2.57
2023-01-06T07:39:45.845Z,2.58
2023-01-06T07:44:47.795Z,2.60
2023-01-06T07:49:50.032Z,2.60
2023-01-06T07:54:53.393Z,2.41
2023-01-06T07:59:56.017Z,2.44
2023-01-06T08:04:59.534Z,2.37
2023-01-06T08:10:04.490Z,2.38
2023-01-06T08:15:07.721Z,2.43
2023-01-06T08:20:10.226Z,2.48
2023-01-06T08:25:13.626Z,2.75
2023-01-06T08:30:20.036Z,2.76
2023-01-06T08:35:21.994Z,3.09
2023-01-06T08:40:25.378Z,3.36
2023-01-06T08:45:27.512Z,3.72
2023-01-06T08:50:29.791Z,3.70
2023-01-06T08:55:33.204Z,3.78
2023-01-06T09:00:35.501Z,3.98
2023-01-06T09:05:37.879Z,4.09
2023-01-06T09:10:41.304Z,4.30
2023-01-06T09:15:44.892Z,4.38
2023-01-06T09:20:47.002Z,4.51
2023-01-06T09:25:51.373Z,4.39
2023-01-06T09:30:53.478Z,4.76
2023-01-06T09:35:55.468Z,4.69
2023-01-06T09:41:16.301Z,4.60
2023-01-06T09:46:23.384Z,4.93
2023-01-06T09:51:28.210Z,4.77
2023-01-06T09:56:31.855Z,4.57
2023-01-06T10:01:37.995Z,4.95
2023-01-06T10:06:44.610Z,4.86
2023-01-06T10:11:58.465Z,4.98
2023-01-06T10:17:17.975Z,5.13
2023-01-06T10:22:27.538Z,5.02
2023-01-06T10:27:36.356Z,4.82
2023-01-06T10:32:38.674Z,4.96
2023-01-06T10:37:44.398Z,4.82
2023-01-06T10:42:57.588Z,5.00
2023-01-06T10:48:01.463Z,5.51
2023-01-06T10:53:04.202Z,5.62
2023-01-06T10:58:23.358Z,5.46
2023-01-06T11:03:35.039Z,5.47
2023-01-06T11:08:39.633Z,5.47
2023-01-06T11:13:47.574Z,5.54
2023-01-06T11:18:54.688Z,5.62
2023-01-06T11:24:14.914Z,5.28
2023-01-06T11:29:24.433Z,5.04
2023-01-06T11:34:29.216Z,4.97
2023-01-06T11:39:34.911Z,5.19
2023-01-06T11:44:40.078Z,5.16
2023-01-06T11:49:46.762Z,5.44
2023-01-06T11:54:58.116Z,5.83
2023-01-06T12:00:23.978Z,6.16
2023-01-06T12:05:32.413Z,6.30
2023-01-06T12:10:36.251Z,6.39
2023-01-06T12:15:41.326Z,6.28
2023-01-06T12:20:46.955Z,5.95
2023-01-06T12:25:51.425Z,6.10
2023-01-06T12:31:01.689Z,5.97
2023-01-06T12:36:12.077Z,6.27
2023-01-06T12:41:20.268Z,6.29
2023-01-06T12:46:31.005Z,6.36
2023-01-06T12:51:39.311Z,6.37
2023-01-06T12:57:04.973Z,6.44
2023-01-06T13:02:19.344Z,6.52
2023-01-06T13:07:34.557Z,6.53
2023-01-06T13:13:01.796Z,6.18
2023-01-06T13:18:13.623Z,6.29
2023-01-06T13:23:29.954Z,6.65
2023-01-06T13:28:43.191Z,6.65
2023-01-06T13:34:11.226Z,6.61
2023-01-06T13:39:16.634Z,6.53
2023-01-06T13:44:22.914Z,6.45
2023-01-06T13:49:26.747Z,6.51
2023-01-06T13:55:00.682Z,6.46
2023-01-06T14:00:16.040Z,6.56
2023-01-06T14:05:50.432Z,6.25
2023-01-06T14:11:02.708Z,6.20
2023-01-06T14:16:08.607Z,6.19
2023-01-06T14:21:25.355Z,6.24
2023-01-06T14:26:50.783Z,6.05
2023-01-06T14:31:52.878Z,6.21
2023-01-06T14:36:56.989Z,6.22
2023-01-06T14:42:05.130Z,6.46
2023-01-06T14:47:11.923Z,6.52
2023-01-06T14:52:18.255Z,6.55
2023-01-06T14:57:26.524Z,6.38
2023-01-06T15:02:29.208Z,6.12
2023-01-06T15:07:31.432Z,6.04
2023-01-06T15:12:34.778Z,6.10
2023-01-06T15:17:36.802Z,6.25
2023-01-06T15:22:39.474Z,6.29
2023-01-06T15:27:49.018Z,6.39
2023-01-06T15:32:52.244Z,6.42
2023-01-06T15:38:01.814Z,6.50
2023-01-06T15:43:40.731Z,6.29
2023-01-06T15:48:47.511Z,6.48
2023-01-06T15:53:58.666Z,7.03
2023-01-06T15:59:02.853Z,7.01
2023-01-06T16:04:05.676Z,7.06
2023-01-06T16:09:30.522Z,6.73
2023-01-06T16:14:35.775Z,6.82
2023-01-06T16:19:45.278Z,6.82
2023-01-06T16:24:50.309Z,6.73
2023-01-06T16:30:21.037Z,6.80
2023-01-06T16:35:25.070Z,6.84
2023-01-06T16:40:28.574Z,7.24
2023-01-06T16:45:37.155Z,7.52
2023-01-06T16:50:40.781Z,7.67
2023-01-06T16:55:43.335Z,7.65
2023-01-06T17:00:51.820Z,7.53
2023-01-06T17:06:28.447Z,7.61
2023-01-06T17:11:37.670Z,7.50
2023-01-06T17:16:44.762Z,7.45
2023-01-06T17:21:48.690Z,7.44
2023-01-06T17:26:55.168Z,7.43
2023-01-06T17:32:02.497Z,7.36
2023-01-06T17:37:12.987Z,7.29
2023-01-06T17:42:28.106Z,7.45
2023-01-06T17:47:42.235Z,7.09
2023-01-06T17:53:04.377Z,7.28
2023-01-06T17:58:14.031Z,7.46
2023-01-06T18:03:19.725Z,7.54
2023-01-06T18:08:23.922Z,7.83
2023-01-06T18:13:32.363Z,7.84
2023-01-06T18:18:38.466Z,7.79
2023-01-06T18:23:42.101Z,7.68
2023-01-06T18:28:44.138Z,7.63
2023-01-06T18:33:47.719Z,7.77
2023-01-06T18:38:50.008Z,7.80
2023-01-06T18:43:52.469Z,7.79
2023-01-06T18:48:56.255Z,7.94
2023-01-06T18:53:58.445Z,7.90
2023-01-06T18:59:00.433Z,8.15
2023-01-06T19:04:09.848Z,8.15
2023-01-06T19:09:26.038Z,8.32
2023-01-06T19:14:31.760Z,8.21
2023-01-06T19:19:38.081Z,8.20
2023-01-06T19:24:52.559Z,8.23
2023-01-06T19:30:01.245Z,8.21
2023-01-06T19:35:22.787Z,8.22
2023-01-06T19:40:27.110Z,8.24
2023-01-06T19:45:32.449Z,8.09
2023-01-06T19:50:36.986Z,7.99
2023-01-06T19:55:38.977Z,7.76
2023-01-06T20:00:47.776Z,7.75
2023-01-06T20:05:51.132Z,7.76
2023-01-06T20:10:53.025Z,7.59
2023-01-06T20:15:55.376Z,7.51
2023-01-06T20:20:58.937Z,7.57
2023-01-06T20:26:01.000Z,7.55
2023-01-06T20:31:03.002Z,7.71
2023-01-06T20:36:08.021Z,7.70
2023-01-06T20:41:10.215Z,7.81
2023-01-06T20:46:13.463Z,7.91
2023-01-06T20:51:16.887Z,7.88
2023-01-06T20:56:18.811Z,7.85
2023-01-06T21:01:20.993Z,7.84
2023-01-06T21:06:24.488Z,7.78
2023-01-06T21:11:26.526Z,7.91
2023-01-06T21:16:29.153Z,7.77
2023-01-06T21:21:32.584Z,7.79
2023-01-06T21:26:34.635Z,7.77
2023-01-06T21:31:36.737Z,7.67
2023-01-06T21:36:40.820Z,7.70
2023-01-06T21:42:01.697Z,7.53
2023-01-06T21:47:03.926Z,7.50
2023-01-06T21:52:08.021Z,7.38
2023-01-06T21:57:10.575Z,7.30
2023-01-06T22:02:14.423Z,7.37
2023-01-06T22:07:17.820Z,7.28
2023-01-06T22:12:20.209Z,7.24
2023-01-06T22:17:23.713Z,7.11
2023-01-06T22:22:28.541Z,7.14
2023-01-06T22:27:30.624Z,6.99
2023-01-06T22:32:32.714Z,6.76
2023-01-06T22:37:36.091Z,6.80
2023-01-06T22:42:38.028Z,6.85
2023-01-06T22:47:40.366Z,6.89
2023-01-06T22:52:43.955Z,6.79
2023-01-06T22:57:45.930Z,6.78
2023-01-06T23:02:48.103Z,6.81
2023-01-06T23:07:51.790Z,6.97
2023-01-06T23:12:53.812Z,6.99
2023-01-06T23:17:56.055Z,7.11
2023-01-06T23:22:59.359Z,7.19
2023-01-06T23:28:01.467Z,7.17
2023-01-06T23:33:03.763Z,7.23
2023-01-06T23:38:07.613Z,7.25
2023-01-06T23:43:09.642Z,7.25
2023-01-06T23:48:11.633Z,7.32
2023-01-06T23:53:15.005Z,7.41
2023-01-06T23:58:16.995Z,7.22
